createdAt,value
2018-12-04T00:00:34.256Z,15.8
2018-12-04T00:01:35.647Z,15.7
2018-12-04T00:02:36.969Z,15.7
2018-12-04T00:03:38.289Z,15.7
2018-12-04T00:04:39.578Z,15.7
2018-12-04T00:05:40.831Z,15.7
2018-12-04T00:06:42.094Z,15.7
2018-12-04T00:07:43.368Z,15.6
2018-12-04T00:08:44.656Z,15.6
2018-12-04T00:09:46.212Z,15.5
2018-12-04T00:10:47.481Z,15.6
2018-12-04T00:11:48.746Z,15.6
2018-12-04T00:12:50.032Z,15.6
2018-12-04T00:13:51.321Z,15.6
2018-12-04T00:14:52.587Z,15.5
2018-12-04T00:15:53.871Z,15.5
2018-12-04T00:16:55.158Z,15.6
2018-12-04T00:17:56.411Z,15.6
2018-12-04T00:18:57.689Z,15.5
2018-12-04T00:19:58.971Z,15.6
2018-12-04T00:21:00.222Z,15.5
2018-12-04T00:22:01.489Z,15.6
2018-12-04T00:23:02.759Z,15.5
2018-12-04T00:24:04.055Z,15.6
2018-12-04T00:25:05.328Z,15.5
2018-12-04T00:26:06.591Z,15.6
2018-12-04T00:27:07.852Z,15.6
2018-12-04T00:28:09.120Z,15.6
2018-12-04T00:29:10.421Z,15.6
2018-12-04T00:30:11.684Z,15.6
2018-12-04T00:31:12.939Z,15.6
2018-12-04T00:32:14.193Z,15.4
2018-12-04T00:33:17.728Z,15.4
2018-12-04T00:34:19.049Z,15.4
2018-12-04T00:35:20.335Z,15.4
2018-12-04T00:36:21.584Z,15.4
2018-12-04T00:37:22.852Z,15.4
2018-12-04T00:38:24.137Z,15.4
2018-12-04T00:39:25.468Z,15.4
2018-12-04T00:40:26.713Z,15.4
2018-12-04T00:41:30.954Z,15.3
2018-12-04T00:42:32.203Z,15.4
2018-12-04T00:43:33.468Z,15.4
2018-12-04T00:44:35.196Z,15.3
2018-12-04T00:45:36.449Z,15.4
2018-12-04T00:46:37.737Z,15.4
2018-12-04T00:47:41.252Z,15.3
2018-12-04T00:48:42.516Z,15.4
2018-12-04T00:49:43.834Z,15.3
2018-12-04T00:50:45.109Z,15.4
2018-12-04T00:51:46.391Z,15.4
2018-12-04T00:52:47.692Z,15.5
2018-12-04T00:53:53.094Z,15.4
2018-12-04T00:54:54.640Z,15.3
2018-12-04T00:55:55.928Z,15.4
2018-12-04T00:56:57.192Z,15.5
2018-12-04T00:57:58.462Z,15.7
2018-12-04T00:59:01.844Z,15.6
2018-12-04T01:00:03.179Z,15.8
2018-12-04T01:01:04.432Z,16.1
2018-12-04T01:02:05.690Z,16.1
2018-12-04T01:03:09.565Z,16
2018-12-04T01:04:10.849Z,15.8
2018-12-04T01:05:12.202Z,15.8
2018-12-04T01:06:13.456Z,15.5
2018-12-04T01:07:20.020Z,15.4
2018-12-04T01:08:21.284Z,15.7
2018-12-04T01:09:22.534Z,15.7
2018-12-04T01:10:23.822Z,15.4
2018-12-04T01:11:25.080Z,15.2
2018-12-04T01:12:26.355Z,15.1
2018-12-04T01:13:27.639Z,15.2
2018-12-04T01:14:28.916Z,15.1
2018-12-04T01:15:30.389Z,15.4
2018-12-04T01:16:31.635Z,15.7
2018-12-04T01:17:33.140Z,15.4
2018-12-04T01:18:34.423Z,15.3
2018-12-04T01:19:35.676Z,15.3
2018-12-04T01:20:36.984Z,15.5
2018-12-04T01:21:38.242Z,15.5
2018-12-04T01:22:39.532Z,15.7
2018-12-04T01:23:40.810Z,15.6
2018-12-04T01:24:42.116Z,15.7
2018-12-04T01:25:43.415Z,15.6
2018-12-04T01:26:44.684Z,15.6
2018-12-04T01:27:45.959Z,15.7
2018-12-04T01:28:47.209Z,15.5
2018-12-04T01:29:48.485Z,15.5
2018-12-04T01:30:49.798Z,15.7
2018-12-04T01:31:51.109Z,15.7
2018-12-04T01:32:52.379Z,15.5
2018-12-04T01:33:53.658Z,15.4
2018-12-04T01:34:54.918Z,15.4
2018-12-04T01:35:56.225Z,15.3
2018-12-04T01:36:57.489Z,15.4
2018-12-04T01:37:58.799Z,15.1
2018-12-04T01:39:00.141Z,14.9
2018-12-04T01:40:01.413Z,15.1
2018-12-04T01:41:02.728Z,15.1
2018-12-04T01:42:04.017Z,15.2
2018-12-04T01:43:05.273Z,15.2
2018-12-04T01:44:06.532Z,15.1
2018-12-04T01:45:07.782Z,15
2018-12-04T01:46:09.288Z,15.1
2018-12-04T01:47:10.534Z,15.2
2018-12-04T01:48:11.800Z,15.2
2018-12-04T01:49:13.276Z,15
2018-12-04T01:50:15.987Z,14.9
2018-12-04T01:51:17.264Z,15
2018-12-04T01:52:18.516Z,15
2018-12-04T01:53:19.758Z,14.9
2018-12-04T01:54:21.003Z,15
2018-12-04T01:55:22.276Z,15
2018-12-04T01:56:23.563Z,14.8
2018-12-04T01:57:24.832Z,14.9
2018-12-04T01:58:26.074Z,14.9
2018-12-04T01:59:27.337Z,15
2018-12-04T02:00:28.594Z,14.9
2018-12-04T02:01:29.896Z,14.9
2018-12-04T02:02:31.152Z,14.7
2018-12-04T02:03:32.466Z,14.6
2018-12-04T02:04:33.724Z,14.7
2018-12-04T02:05:34.979Z,14.7
2018-12-04T02:06:40.124Z,14.6
2018-12-04T02:07:41.502Z,14.7
2018-12-04T02:08:43.350Z,14.8
2018-12-04T02:09:44.598Z,14.7
2018-12-04T02:10:45.854Z,14.8
2018-12-04T02:11:47.137Z,14.8
2018-12-04T02:12:51.163Z,14.7
2018-12-04T02:13:52.415Z,14.7
2018-12-04T02:14:53.895Z,14.6
2018-12-04T02:15:55.169Z,14.5
2018-12-04T02:16:56.483Z,14.4
2018-12-04T02:17:57.787Z,14.4
2018-12-04T02:20:29.088Z,14.4
2018-12-04T02:21:30.550Z,14.4
2018-12-04T02:22:31.852Z,14.3
2018-12-04T02:23:33.096Z,14.3
2018-12-04T02:24:34.371Z,14.2
2018-12-04T02:25:35.611Z,14.3
2018-12-04T02:26:36.896Z,14.2
2018-12-04T02:27:38.178Z,14.2
2018-12-04T02:28:39.475Z,14.3
2018-12-04T02:29:40.737Z,14.2
2018-12-04T02:30:51.283Z,14.3
2018-12-04T02:31:53.952Z,14.2
2018-12-04T02:32:55.259Z,14.1
2018-12-04T02:33:56.501Z,14.1
2018-12-04T02:34:57.739Z,14.1
2018-12-04T02:35:59.031Z,14.1
2018-12-04T02:37:00.304Z,14.1
2018-12-04T02:38:01.600Z,14.1
2018-12-04T02:39:02.883Z,14
2018-12-04T02:40:04.147Z,13.9
2018-12-04T02:41:05.417Z,13.8
2018-12-04T02:42:06.681Z,13.6
2018-12-04T02:43:08.208Z,13.5
2018-12-04T02:44:09.491Z,13.4
2018-12-04T02:45:10.727Z,13.4
2018-12-04T02:46:11.972Z,13.4
2018-12-04T02:47:13.236Z,13.5
2018-12-04T02:48:14.541Z,13.6
2018-12-04T02:49:15.800Z,13.6
2018-12-04T02:50:17.036Z,13.6
2018-12-04T02:51:18.283Z,13.7
2018-12-04T02:52:19.584Z,13.6
2018-12-04T02:53:20.875Z,13.8
2018-12-04T02:54:22.124Z,13.7
2018-12-04T02:55:23.368Z,13.7
2018-12-04T02:56:24.639Z,13.7
2018-12-04T02:57:25.917Z,13.5
2018-12-04T02:58:27.239Z,13.6
2018-12-04T02:59:28.496Z,13.6
2018-12-04T03:00:29.756Z,13.4
2018-12-04T03:01:30.989Z,13.5
2018-12-04T03:02:32.237Z,13.5
2018-12-04T03:03:33.535Z,13.3
2018-12-04T03:04:34.773Z,13.3
2018-12-04T03:05:36.017Z,13.3
2018-12-04T03:06:37.257Z,13.3
2018-12-04T03:07:38.503Z,13.3
2018-12-04T03:08:39.799Z,13.3
2018-12-04T03:09:41.061Z,13.3
2018-12-04T03:10:42.333Z,13.3
2018-12-04T03:11:43.592Z,13.3
2018-12-04T03:12:44.835Z,13.2
2018-12-04T03:13:46.099Z,13.3
2018-12-04T03:14:47.347Z,13.1
2018-12-04T03:15:48.613Z,13
2018-12-04T03:16:51.984Z,13.1
2018-12-04T03:17:54.174Z,13.1
2018-12-04T03:18:55.757Z,13.2
2018-12-04T03:19:57.006Z,13.1
2018-12-04T03:20:58.276Z,13.3
2018-12-04T03:21:59.566Z,13.3
2018-12-04T03:23:00.842Z,13.2
2018-12-04T03:24:02.155Z,13
2018-12-04T03:25:03.391Z,12.9
2018-12-04T03:26:04.644Z,13.2
2018-12-04T03:27:05.900Z,13.3
2018-12-04T03:28:07.178Z,13.4
2018-12-04T03:29:08.464Z,13.1
2018-12-04T03:30:09.704Z,13.2
2018-12-04T03:31:10.964Z,13.2
2018-12-04T03:32:15.248Z,13
2018-12-04T03:33:16.501Z,13.2
2018-12-04T03:34:17.824Z,13.1
2018-12-04T03:35:19.091Z,13.3
2018-12-04T03:36:20.358Z,13.3
2018-12-04T03:37:21.619Z,13.3
2018-12-04T03:38:22.876Z,13.2
2018-12-04T03:39:24.173Z,13.2
2018-12-04T03:40:25.456Z,13.4
2018-12-04T03:41:26.725Z,13.4
2018-12-04T03:44:00.985Z,13.4
2018-12-04T03:45:02.302Z,13.1
2018-12-04T03:46:03.638Z,13
2018-12-04T03:47:04.899Z,13
2018-12-04T03:48:06.138Z,13
2018-12-04T03:49:07.417Z,13.1
2018-12-04T03:50:09.187Z,13.1
2018-12-04T03:51:10.452Z,13.1
2018-12-04T03:52:11.715Z,13.1
2018-12-04T03:53:12.990Z,13
2018-12-04T03:54:16.469Z,12.8
2018-12-04T03:55:17.754Z,12.9
2018-12-04T03:56:18.989Z,12.9
2018-12-04T03:57:20.259Z,12.9
2018-12-04T03:58:21.528Z,12.9
2018-12-04T03:59:22.763Z,12.8
2018-12-04T04:00:24.038Z,12.8
2018-12-04T04:01:25.286Z,12.7
2018-12-04T04:02:26.546Z,12.8
2018-12-04T04:03:27.793Z,12.9
2018-12-04T04:04:29.032Z,12.7
2018-12-04T04:05:30.336Z,12.8
2018-12-04T04:06:31.609Z,12.9
2018-12-04T04:07:32.858Z,12.9
2018-12-04T04:08:34.116Z,13
2018-12-04T04:09:35.357Z,13.1
2018-12-04T04:10:36.638Z,13.1
2018-12-04T04:11:37.912Z,13.2
2018-12-04T04:12:39.172Z,13
2018-12-04T04:13:43.499Z,13.2
2018-12-04T04:14:46.252Z,13.1
2018-12-04T04:15:47.726Z,13
2018-12-04T04:16:49.000Z,13.1
2018-12-04T04:17:50.254Z,13.1
2018-12-04T04:18:51.508Z,13.1
2018-12-04T04:19:52.776Z,13.1
2018-12-04T04:20:54.082Z,13.1
2018-12-04T04:21:55.343Z,13.1
2018-12-04T04:22:56.605Z,13
2018-12-04T04:23:57.878Z,12.9
2018-12-04T04:24:59.155Z,13
2018-12-04T04:26:00.436Z,12.9
2018-12-04T04:27:01.699Z,12.8
2018-12-04T04:28:02.964Z,12.7
2018-12-04T04:29:04.287Z,12.7
2018-12-04T04:30:05.546Z,12.7
2018-12-04T04:31:06.837Z,12.6
2018-12-04T04:32:08.079Z,12.9
2018-12-04T04:33:09.338Z,12.8
2018-12-04T04:34:10.868Z,12.9
2018-12-04T04:35:12.129Z,12.9
2018-12-04T04:36:18.128Z,12.8
2018-12-04T04:37:21.615Z,12.8
2018-12-04T04:38:25.603Z,12.8
2018-12-04T04:39:26.880Z,12.7
2018-12-04T04:40:28.124Z,12.7
2018-12-04T04:41:29.436Z,12.8
2018-12-04T04:42:30.683Z,12.8
2018-12-04T04:43:32.170Z,12.9
2018-12-04T04:44:35.539Z,12.9
2018-12-04T04:45:36.800Z,12.8
2018-12-04T04:46:38.097Z,12.7
2018-12-04T04:47:39.351Z,12.7
2018-12-04T04:48:40.620Z,12.4
2018-12-04T04:49:41.908Z,12.4
2018-12-04T04:50:43.149Z,12.4
2018-12-04T04:51:44.767Z,12.4
2018-12-04T04:52:46.033Z,12.3
2018-12-04T04:53:47.367Z,12.5
2018-12-04T04:54:48.669Z,12.4
2018-12-04T04:55:49.960Z,12.4
2018-12-04T04:56:51.231Z,12.5
2018-12-04T04:57:52.504Z,12.5
2018-12-04T04:58:53.757Z,12.5
2018-12-04T04:59:55.012Z,12.5
2018-12-04T05:00:56.306Z,12.4
2018-12-04T05:01:57.587Z,12.1
2018-12-04T05:02:58.836Z,12.4
2018-12-04T05:04:02.692Z,12.3
2018-12-04T05:05:04.026Z,12.2
2018-12-04T05:06:05.389Z,12.1
2018-12-04T05:07:06.712Z,12
2018-12-04T05:08:07.946Z,12.1
2018-12-04T05:09:09.201Z,12.1
2018-12-04T05:10:10.458Z,11.9
2018-12-04T05:11:11.727Z,12
2018-12-04T05:12:13.275Z,11.7
2018-12-04T05:13:14.517Z,11.9
2018-12-04T05:14:15.789Z,11.6
2018-12-04T05:15:17.048Z,11.8
2018-12-04T05:16:18.321Z,11.6
2018-12-04T05:17:22.392Z,11.7
2018-12-04T05:18:23.681Z,11.7
2018-12-04T05:19:24.953Z,11.6
2018-12-04T05:20:26.204Z,11.6
2018-12-04T05:21:29.859Z,11.6
2018-12-04T05:22:31.294Z,11.5
2018-12-04T05:23:32.778Z,11.5
2018-12-04T05:24:37.061Z,11.6
2018-12-04T05:25:38.312Z,11.6
2018-12-04T05:26:39.590Z,11.5
2018-12-04T05:27:40.870Z,11.5
2018-12-04T05:28:42.125Z,11.4
2018-12-04T05:29:43.386Z,11.6
2018-12-04T05:30:44.636Z,11.8
2018-12-04T05:31:45.898Z,11.4
2018-12-04T05:32:49.530Z,11.6
2018-12-04T05:33:50.821Z,11.6
2018-12-04T05:34:52.095Z,11.8
2018-12-04T05:35:53.417Z,11.6
2018-12-04T05:36:57.464Z,11.7
2018-12-04T05:37:58.789Z,11.6
2018-12-04T05:39:00.079Z,11.6
2018-12-04T05:40:01.374Z,11.8
2018-12-04T05:41:02.649Z,11.8
2018-12-04T05:42:03.932Z,11.7
2018-12-04T05:43:07.441Z,11.7
2018-12-04T05:44:11.122Z,11.7
2018-12-04T05:45:12.393Z,11.6
2018-12-04T05:46:13.675Z,11.9
2018-12-04T05:47:14.946Z,11.8
2018-12-04T05:48:16.262Z,11.7
2018-12-04T05:49:17.572Z,11.8
2018-12-04T05:50:18.844Z,11.4
2018-12-04T05:51:20.127Z,11.3
2018-12-04T05:52:21.451Z,11.4
2018-12-04T05:53:22.767Z,11.4
2018-12-04T05:54:24.059Z,11.3
2018-12-04T05:55:25.391Z,11.4
2018-12-04T05:56:26.805Z,11.3
2018-12-04T05:57:28.666Z,11.2
2018-12-04T05:58:30.134Z,11.3
2018-12-04T05:59:31.449Z,11.4
2018-12-04T06:00:32.746Z,11.5
2018-12-04T06:01:34.095Z,11.4
2018-12-04T06:02:38.073Z,11.4
2018-12-04T06:03:39.401Z,11
2018-12-04T06:04:47.626Z,11.1
2018-12-04T06:05:48.945Z,11.1
2018-12-04T06:06:50.312Z,11
2018-12-04T06:07:51.617Z,11.2
2018-12-04T06:08:52.922Z,11.1
2018-12-04T06:09:54.318Z,11
2018-12-04T06:10:55.787Z,11.1
2018-12-04T06:11:57.068Z,11.1
2018-12-04T06:12:58.363Z,11
2018-12-04T06:13:59.740Z,11.1
2018-12-04T06:15:08.340Z,11.2
2018-12-04T06:16:11.428Z,11.3
2018-12-04T06:17:12.701Z,11.3
2018-12-04T06:18:14.006Z,11.5
2018-12-04T06:19:15.308Z,11.7
2018-12-04T06:20:16.621Z,11.6
2018-12-04T06:21:17.904Z,11.4
2018-12-04T06:22:24.323Z,11.3
2018-12-04T06:23:26.278Z,11.3
2018-12-04T06:24:27.843Z,11.4
2018-12-04T06:25:29.151Z,11.4
2018-12-04T06:26:36.429Z,11.3
2018-12-04T06:27:39.934Z,11.4
2018-12-04T06:28:41.201Z,11.4
2018-12-04T06:29:45.612Z,11.4
2018-12-04T06:30:46.868Z,11.4
2018-12-04T06:31:48.280Z,11.4
2018-12-04T06:32:53.884Z,11.1
2018-12-04T06:33:55.214Z,11.2
2018-12-04T06:34:56.540Z,11.3
2018-12-04T06:35:57.843Z,11.3
2018-12-04T06:36:59.366Z,11.2
2018-12-04T06:38:00.709Z,11.1
2018-12-04T06:39:02.010Z,11
2018-12-04T06:40:03.365Z,11.2
2018-12-04T06:41:05.816Z,11.2
2018-12-04T06:42:07.090Z,11
2018-12-04T06:43:09.252Z,11.1
2018-12-04T06:44:10.540Z,11.1
2018-12-04T06:45:11.845Z,10.9
2018-12-04T06:46:13.151Z,10.9
2018-12-04T06:47:14.557Z,10.9
2018-12-04T06:48:15.871Z,10.9
2018-12-04T06:49:19.550Z,11.9
2018-12-04T06:50:20.875Z,12.5
2018-12-04T06:51:22.164Z,13.2
2018-12-04T06:52:23.454Z,13.8
2018-12-04T06:53:24.959Z,14.4
2018-12-04T06:54:26.272Z,14.5
2018-12-04T06:55:27.581Z,14.6
2018-12-04T06:56:28.847Z,14.9
2018-12-04T06:57:30.108Z,15.2
2018-12-04T06:58:31.403Z,15.7
2018-12-04T06:59:32.812Z,15.9
2018-12-04T07:00:34.183Z,16.1
2018-12-04T07:01:35.443Z,16.3
2018-12-04T07:02:44.067Z,16.3
2018-12-04T07:03:45.451Z,16.3
2018-12-04T07:04:46.752Z,16.6
2018-12-04T07:05:48.140Z,16.9
2018-12-04T07:06:49.412Z,16.9
2018-12-04T07:07:50.725Z,17
2018-12-04T07:08:52.036Z,17
2018-12-04T07:09:53.320Z,17
2018-12-04T07:10:54.909Z,17
2018-12-04T07:11:56.213Z,17
2018-12-04T07:13:03.309Z,17.1
2018-12-04T07:14:04.634Z,17.1
2018-12-04T07:15:05.979Z,17.1
2018-12-04T07:16:07.320Z,17.2
2018-12-04T07:17:08.609Z,17.4
2018-12-04T07:18:09.873Z,17.5
2018-12-04T07:19:11.160Z,17.7
2018-12-04T07:20:12.434Z,17.7
2018-12-04T07:21:16.736Z,17.9
2018-12-04T07:22:18.015Z,17.9
2018-12-04T07:23:19.309Z,18.1
2018-12-04T07:24:20.601Z,18.1
2018-12-04T07:25:21.921Z,18.1
2018-12-04T07:26:23.310Z,18
2018-12-04T07:27:33.232Z,18.1
2018-12-04T07:28:37.133Z,18.1
2018-12-04T07:29:38.441Z,18.1
2018-12-04T07:30:41.061Z,18.1
2018-12-04T07:31:42.418Z,18.4
2018-12-04T07:32:43.710Z,18.4
2018-12-04T07:33:45.203Z,18.4
2018-12-04T07:34:49.793Z,18.6
2018-12-04T07:35:58.367Z,18.5
2018-12-04T07:36:59.763Z,18.4
2018-12-04T07:38:03.564Z,18.5
2018-12-04T07:39:09.246Z,18.5
2018-12-04T07:40:10.520Z,18.5
2018-12-04T07:41:12.871Z,18.5
2018-12-04T07:42:14.233Z,18.5
2018-12-04T07:43:15.528Z,18.4
2018-12-04T07:44:17.497Z,18.5
2018-12-04T07:45:19.011Z,18.4
2018-12-04T07:46:20.292Z,18.4
2018-12-04T07:47:21.647Z,18.3
2018-12-04T07:48:24.296Z,18.2
2018-12-04T07:49:25.570Z,18
2018-12-04T07:50:26.850Z,18.1
2018-12-04T07:51:28.164Z,18
2018-12-04T07:52:29.483Z,18
2018-12-04T07:53:30.780Z,17.8
2018-12-04T07:54:32.076Z,17.8
2018-12-04T07:55:36.137Z,17.7
2018-12-04T07:56:50.118Z,17.8
2018-12-04T07:57:54.502Z,18
2018-12-04T07:58:55.845Z,17.8
2018-12-04T07:59:57.150Z,17.9
2018-12-04T08:00:58.467Z,17.6
2018-12-04T08:02:04.048Z,17.7
2018-12-04T08:03:05.363Z,17.6
2018-12-04T08:04:06.786Z,17.5
2018-12-04T08:05:08.037Z,17.4
2018-12-04T08:06:09.313Z,17.4
2018-12-04T08:07:12.697Z,17.4
2018-12-04T08:08:14.031Z,17.4
2018-12-04T08:09:15.374Z,17.5
2018-12-04T08:10:16.643Z,17.5
2018-12-04T08:11:17.922Z,17.4
2018-12-04T08:12:21.821Z,17.2
2018-12-04T08:13:23.187Z,17.3
2018-12-04T08:14:24.465Z,17.2
2018-12-04T08:15:25.730Z,17.2
2018-12-04T08:16:27.388Z,17.1
2018-12-04T08:17:43.301Z,17.4
2018-12-04T08:18:47.625Z,17.3
2018-12-04T08:19:49.050Z,17.4
2018-12-04T08:20:50.345Z,17.4
2018-12-04T08:21:51.630Z,17.3
2018-12-04T08:22:52.930Z,17.3
2018-12-04T08:23:54.282Z,17.2
2018-12-04T08:24:55.550Z,17.2
2018-12-04T08:25:59.260Z,17.1
2018-12-04T08:27:00.587Z,17.1
2018-12-04T08:28:06.119Z,17.1
2018-12-04T08:29:10.526Z,17.3
2018-12-04T08:30:16.428Z,17.3
2018-12-04T08:32:33.594Z,17.3
2018-12-04T08:33:37.358Z,17.3
2018-12-04T08:34:38.786Z,17.4
2018-12-04T08:35:40.209Z,17.4
2018-12-04T08:36:50.412Z,17.4
2018-12-04T08:37:51.755Z,17.4
2018-12-04T08:38:55.933Z,17.3
2018-12-04T08:39:57.231Z,17.5
2018-12-04T08:40:58.515Z,17.3
2018-12-04T08:41:59.796Z,17.3
2018-12-04T08:43:04.045Z,17.1
2018-12-04T08:44:05.353Z,17.4
2018-12-04T08:45:06.685Z,17.5
2018-12-04T08:46:08.008Z,17.5
2018-12-04T08:47:09.607Z,17.5
2018-12-04T08:48:11.165Z,17.5
2018-12-04T08:49:13.249Z,17.6
2018-12-04T08:50:14.622Z,17.6
2018-12-04T08:51:15.944Z,17.6
2018-12-04T08:52:17.223Z,17.7
2018-12-04T08:53:18.501Z,17.8
2018-12-04T08:54:19.809Z,17.7
2018-12-04T08:55:21.196Z,17.6
2018-12-04T08:56:22.531Z,17.7
2018-12-04T08:57:23.808Z,17.6
2018-12-04T08:58:27.583Z,17.6
2018-12-04T08:59:31.321Z,17.8
2018-12-04T09:00:32.897Z,17.7
2018-12-04T09:01:36.718Z,17.6
2018-12-04T09:02:38.045Z,17.7
2018-12-04T09:03:42.646Z,17.9
2018-12-04T09:04:43.987Z,17.8
2018-12-04T09:05:45.302Z,17.7
2018-12-04T09:06:47.297Z,17.8
2018-12-04T09:07:48.958Z,17.8
2018-12-04T09:08:54.200Z,17.7
2018-12-04T09:09:58.095Z,17.8
2018-12-04T09:10:59.456Z,18
2018-12-04T09:12:02.982Z,17.9
2018-12-04T09:13:07.081Z,17.8
2018-12-04T09:14:08.528Z,18
2018-12-04T09:15:09.877Z,18
2018-12-04T09:16:16.568Z,17.9
2018-12-04T09:17:24.079Z,17.7
2018-12-04T09:18:25.399Z,17.9
2018-12-04T09:19:26.800Z,18
2018-12-04T09:20:30.371Z,18
2018-12-04T09:21:31.776Z,18
2018-12-04T09:22:33.121Z,18
2018-12-04T09:23:37.561Z,18
2018-12-04T09:24:38.984Z,18
2018-12-04T09:25:40.599Z,18
2018-12-04T09:26:52.839Z,18
2018-12-04T09:27:54.167Z,18
2018-12-04T09:28:56.924Z,17.9
2018-12-04T09:29:58.418Z,18
2018-12-04T09:30:59.929Z,17.9
2018-12-04T09:32:01.365Z,18
2018-12-04T09:33:04.980Z,17.7
2018-12-04T09:34:06.842Z,17.8
2018-12-04T09:35:11.016Z,17.9
2018-12-04T09:36:12.559Z,17.8
2018-12-04T09:37:14.201Z,18
2018-12-04T09:38:15.534Z,18
2018-12-04T09:39:16.837Z,18
2018-12-04T09:40:18.154Z,17.9
2018-12-04T09:41:22.434Z,17.9
2018-12-04T09:42:23.825Z,17.9
2018-12-04T09:43:25.128Z,17.9
2018-12-04T09:44:30.832Z,17.7
2018-12-04T09:45:32.220Z,17.7
2018-12-04T09:46:38.679Z,17.7
2018-12-04T09:47:40.026Z,17.8
2018-12-04T09:48:41.347Z,17.8
2018-12-04T09:49:42.739Z,18
2018-12-04T09:50:44.085Z,18
2018-12-04T09:51:45.449Z,17.9
2018-12-04T09:52:46.845Z,18
2018-12-04T09:53:51.985Z,18
2018-12-04T09:54:53.793Z,18
2018-12-04T09:55:55.078Z,18
2018-12-04T09:56:57.802Z,18.1
2018-12-04T09:57:59.639Z,18.1
2018-12-04T09:59:03.455Z,18.1
2018-12-04T10:00:04.754Z,18.1
2018-12-04T10:01:06.251Z,18.1
2018-12-04T10:02:10.715Z,17.9
2018-12-04T10:03:15.037Z,18.1
2018-12-04T10:04:16.467Z,18.2
2018-12-04T10:05:17.830Z,18
2018-12-04T10:06:22.089Z,18.2
2018-12-04T10:07:26.362Z,18.2
2018-12-04T10:08:27.950Z,18.2
2018-12-04T10:09:29.314Z,18.1
2018-12-04T10:10:30.644Z,18.1
2018-12-04T10:11:33.074Z,18.3
2018-12-04T10:12:34.469Z,18.2
2018-12-04T10:13:47.217Z,18.1
2018-12-04T10:14:56.279Z,18
2018-12-04T10:16:00.461Z,17.9
2018-12-04T10:17:02.869Z,18
2018-12-04T10:18:06.632Z,18
2018-12-04T10:19:07.974Z,18
2018-12-04T10:20:09.308Z,17.9
2018-12-04T10:21:10.615Z,18.1
2018-12-04T10:23:33.184Z,18.2
2018-12-04T10:24:34.502Z,18.1
2018-12-04T10:25:35.797Z,18.1
2018-12-04T10:26:51.854Z,18.2
2018-12-04T10:27:55.641Z,18.2
2018-12-04T10:28:57.620Z,18.2
2018-12-04T10:30:03.467Z,18.1
2018-12-04T10:31:09.321Z,18.2
2018-12-04T10:32:20.461Z,18.2
2018-12-04T10:33:21.938Z,18.2
2018-12-04T10:34:23.244Z,18.1
2018-12-04T10:35:24.691Z,18.1
2018-12-04T10:36:29.892Z,18
2018-12-04T10:37:31.521Z,18
2018-12-04T10:38:34.836Z,18.1
2018-12-04T10:39:38.826Z,18.1
2018-12-04T10:40:40.592Z,17.9
2018-12-04T10:41:56.754Z,18.1
2018-12-04T10:43:00.341Z,18.1
2018-12-04T10:44:01.731Z,18.3
2018-12-04T10:45:08.309Z,18.2
2018-12-04T10:46:11.286Z,18.2
2018-12-04T10:47:17.524Z,18.1
2018-12-04T10:48:19.070Z,18.1
2018-12-04T10:49:20.401Z,18.3
2018-12-04T10:50:32.110Z,18.4
2018-12-04T10:51:36.579Z,18.3
2018-12-04T10:52:52.272Z,18
2018-12-04T10:53:55.783Z,18.3
2018-12-04T10:55:00.160Z,18.3
2018-12-04T10:56:06.093Z,18.1
2018-12-04T10:57:09.852Z,18.1
2018-12-04T10:58:11.471Z,18.2
2018-12-04T10:59:15.322Z,18.3
2018-12-04T11:00:22.185Z,18.2
2018-12-04T11:01:23.832Z,18.2
2018-12-04T11:02:28.498Z,18.2
2018-12-04T11:03:29.880Z,18
2018-12-04T11:04:31.170Z,18.2
2018-12-04T11:05:32.435Z,18.2
2018-12-04T11:06:45.240Z,18.3
2018-12-04T11:07:46.827Z,18.2
2018-12-04T11:08:50.998Z,18.3
2018-12-04T11:09:57.571Z,18.3
2018-12-04T11:11:02.710Z,18.3
2018-12-04T11:12:05.889Z,18.4
2018-12-04T11:13:13.961Z,18.5
2018-12-04T11:14:15.797Z,18.4
2018-12-04T11:15:37.284Z,18.4
2018-12-04T11:16:50.986Z,18.2
2018-12-04T11:17:52.533Z,18.2
2018-12-04T11:18:57.285Z,18.4
2018-12-04T11:20:01.571Z,18.3
2018-12-04T11:21:02.877Z,18.3
2018-12-04T11:22:04.170Z,18.4
2018-12-04T11:23:14.634Z,18.4
2018-12-04T11:24:16.239Z,18.4
2018-12-04T11:25:21.005Z,18.4
2018-12-04T11:26:22.551Z,18.4
2018-12-04T11:27:26.193Z,18.4
2018-12-04T11:28:30.224Z,18.5
2018-12-04T11:29:33.501Z,18.4
2018-12-04T11:30:37.107Z,18.5
2018-12-04T11:31:38.402Z,18.4
2018-12-04T11:32:42.029Z,18.5
2018-12-04T11:33:54.504Z,18.4
2018-12-04T11:35:00.264Z,18.5
2018-12-04T11:36:01.982Z,18.4
2018-12-04T11:37:03.309Z,18.4
2018-12-04T11:38:04.624Z,18.5
2018-12-04T11:39:10.091Z,18.5
2018-12-04T11:40:11.460Z,18.4
2018-12-04T11:41:18.628Z,18.4
2018-12-04T11:42:32.495Z,18.5
2018-12-04T11:43:33.806Z,18.4
2018-12-04T11:44:37.599Z,18.5
2018-12-04T11:45:44.972Z,18.4
2018-12-04T11:46:46.309Z,18.5
2018-12-04T11:47:47.631Z,18.6
2018-12-04T11:48:51.687Z,18.6
2018-12-04T11:49:55.401Z,18.5
2018-12-04T11:51:00.109Z,18.5
2018-12-04T11:52:04.298Z,18.4
2018-12-04T11:53:08.924Z,18.6
2018-12-04T11:54:12.493Z,18.5
2018-12-04T11:55:18.706Z,18.5
2018-12-04T11:56:22.273Z,18.7
2018-12-04T11:57:27.620Z,18.6
2018-12-04T11:58:29.626Z,18.5
2018-12-04T11:59:30.958Z,18.5
2018-12-04T12:00:38.538Z,18.5
2018-12-04T12:01:40.416Z,18.4
2018-12-04T12:02:41.771Z,18.5
2018-12-04T12:03:43.122Z,18.3
2018-12-04T12:04:44.466Z,18.5
2018-12-04T12:05:45.846Z,18.5
2018-12-04T12:06:47.235Z,18.6
2018-12-04T12:07:51.582Z,18.5
2018-12-04T12:08:53.131Z,18.3
2018-12-04T12:09:55.058Z,18.3
2018-12-04T12:10:56.501Z,18.3
2018-12-04T12:11:59.121Z,18.4
2018-12-04T12:13:04.380Z,18.3
2018-12-04T12:14:05.746Z,18.4
2018-12-04T12:15:07.398Z,18.4
2018-12-04T12:17:39.923Z,18.7
2018-12-04T12:18:41.289Z,18.6
2018-12-04T12:19:53.110Z,18.5
2018-12-04T12:21:10.619Z,18.5
2018-12-04T12:22:14.357Z,18.6
2018-12-04T12:23:16.125Z,18.5
2018-12-04T12:24:17.546Z,18.6
2018-12-04T12:25:28.616Z,18.6
2018-12-04T12:26:38.654Z,18.7
2018-12-04T12:27:40.273Z,18.7
2018-12-04T12:28:41.643Z,18.7
2018-12-04T12:29:42.951Z,18.7
2018-12-04T12:30:44.562Z,18.6
2018-12-04T12:31:45.833Z,18.8
2018-12-04T12:32:52.533Z,18.9
2018-12-04T12:34:03.259Z,18.8
2018-12-04T12:35:04.890Z,18.8
2018-12-04T12:36:06.238Z,18.8
2018-12-04T12:37:10.629Z,18.7
2018-12-04T12:38:14.493Z,18.8
2018-12-04T12:39:15.891Z,18.7
2018-12-04T12:40:17.553Z,18.7
2018-12-04T12:41:18.830Z,18.7
2018-12-04T12:42:22.273Z,19
2018-12-04T12:43:23.806Z,18.9
2018-12-04T12:44:25.243Z,19
2018-12-04T12:45:27.082Z,18.8
2018-12-04T12:46:28.681Z,18.8
2018-12-04T12:47:31.922Z,18.8
2018-12-04T12:48:33.240Z,18.8
2018-12-04T12:49:34.804Z,18.8
2018-12-04T12:50:36.306Z,18.9
2018-12-04T12:51:37.672Z,18.9
2018-12-04T12:52:39.240Z,18.8
2018-12-04T12:53:41.292Z,18.7
2018-12-04T12:54:44.465Z,18.8
2018-12-04T12:55:46.118Z,18.8
2018-12-04T12:56:48.284Z,18.8
2018-12-04T12:57:52.644Z,18.9
2018-12-04T12:58:53.961Z,18.9
2018-12-04T12:59:55.336Z,18.8
2018-12-04T13:00:56.742Z,19
2018-12-04T13:01:58.431Z,19.1
2018-12-04T13:02:59.757Z,19.2
2018-12-04T13:04:03.847Z,19.1
2018-12-04T13:05:05.358Z,19.2
2018-12-04T13:06:06.669Z,19.2
2018-12-04T13:07:08.254Z,19.3
2018-12-04T13:08:09.616Z,19.3
2018-12-04T13:09:12.085Z,19.3
2018-12-04T13:10:13.500Z,19.3
2018-12-04T13:11:14.996Z,19.3
2018-12-04T13:12:16.824Z,19.2
2018-12-04T13:13:18.187Z,19.2
2018-12-04T13:14:20.861Z,19.1
2018-12-04T13:15:22.162Z,19.2
2018-12-04T13:16:23.492Z,19.1
2018-12-04T13:17:24.808Z,18.9
2018-12-04T13:18:26.108Z,19.1
2018-12-04T13:19:32.769Z,19.2
2018-12-04T13:20:37.216Z,19.2
2018-12-04T13:21:39.171Z,19.1
2018-12-04T13:22:41.742Z,19.1
2018-12-04T13:23:47.121Z,19.3
2018-12-04T13:24:48.652Z,19
2018-12-04T13:25:52.491Z,19.1
2018-12-04T13:26:54.192Z,19.2
2018-12-04T13:27:57.011Z,19.3
2018-12-04T13:28:58.390Z,19.2
2018-12-04T13:29:59.699Z,19.2
2018-12-04T13:31:01.539Z,19.3
2018-12-04T13:32:05.431Z,19.2
2018-12-04T13:33:07.125Z,19.2
2018-12-04T13:34:12.246Z,19.2
2018-12-04T13:35:13.586Z,19.2
2018-12-04T13:36:14.920Z,19.3
2018-12-04T13:37:17.517Z,19.4
2018-12-04T13:38:18.825Z,19.4
2018-12-04T13:39:23.571Z,19.4
2018-12-04T13:40:25.076Z,19.5
2018-12-04T13:41:26.489Z,19.4
2018-12-04T13:42:27.823Z,19.3
2018-12-04T13:43:29.533Z,19.3
2018-12-04T13:44:31.091Z,19.4
2018-12-04T13:45:32.458Z,19.4
2018-12-04T13:46:33.881Z,19.3
2018-12-04T13:47:35.710Z,19.3
2018-12-04T13:48:37.575Z,19.4
2018-12-04T13:49:39.031Z,19.4
2018-12-04T13:50:40.372Z,19.3
2018-12-04T13:51:41.766Z,19.3
2018-12-04T13:52:43.173Z,19.3
2018-12-04T13:53:44.750Z,19.2
2018-12-04T13:54:47.634Z,19.3
2018-12-04T13:55:49.352Z,19.4
2018-12-04T13:56:52.225Z,19.3
2018-12-04T13:57:53.772Z,19.3
2018-12-04T13:58:55.290Z,19.3
2018-12-04T13:59:56.872Z,19.4
2018-12-04T14:00:58.202Z,19.3
2018-12-04T14:01:59.683Z,19.2